Albion, Washington
Current Conditions -  °F | °C
As of 12:53 PM on Thursday 18 Dec 2014 (Local Time) from KPUW Reporting Station
Overcast Overcast  
Wind Chill: 40°   Ceiling: 6500
Heat Index: 45°   Visibility: 10mi
Dew Point: 37°   Wind: 10mph
Humidity: 74%   Direction: 140°SE
Pressure: 29.99"   Gusts: NA
Location:  46.79°N, 117.25°W
Report Text: KPUW 182053Z AUTO 14009KT 10SM OVC065 07/03 A2999 RMK AO2 SLP169 T00720028 58010
Loading
Personal Weather Stations






























Interactive Weather Map New forecast layout! Learn more

10-Day Weather Forecast

Advertisements
Track Severe Weather on mobile